createdAt,value
2023-05-08T00:01:34.466Z,4.23
2023-05-08T00:03:36.133Z,4.16
2023-05-08T00:05:37.944Z,4.12
2023-05-08T00:07:39.388Z,4.13
2023-05-08T00:09:40.796Z,4.08
2023-05-08T00:11:42.389Z,4.00
2023-05-08T00:13:43.797Z,3.99
2023-05-08T00:15:45.349Z,4.00
2023-05-08T00:17:47.390Z,3.96
2023-05-08T00:19:48.905Z,3.95
2023-05-08T00:21:50.326Z,3.93
2023-05-08T00:23:51.936Z,3.92
2023-05-08T00:25:53.360Z,3.98
2023-05-08T00:27:54.783Z,3.93
2023-05-08T00:29:56.215Z,3.89
2023-05-08T00:31:57.704Z,3.85
2023-05-08T00:33:59.220Z,3.82
2023-05-08T00:36:02.373Z,3.80
2023-05-08T00:38:03.805Z,3.84
2023-05-08T00:40:05.904Z,3.84
2023-05-08T00:42:07.735Z,3.86
2023-05-08T00:44:09.215Z,3.89
2023-05-08T00:46:11.447Z,3.80
2023-05-08T00:48:13.110Z,3.90
2023-05-08T00:50:14.911Z,3.79
2023-05-08T00:52:17.569Z,3.85
2023-05-08T00:54:19.545Z,3.82
2023-05-08T00:56:23.677Z,3.89
2023-05-08T00:58:27.008Z,3.93
2023-05-08T01:00:29.123Z,3.93
2023-05-08T01:02:31.488Z,3.90
2023-05-08T01:04:34.893Z,3.98
2023-05-08T01:06:37.289Z,3.89
2023-05-08T01:08:39.069Z,3.91
2023-05-08T01:10:48.092Z,3.98
2023-05-08T01:13:26.885Z,3.98
2023-05-08T01:15:38.412Z,3.89
2023-05-08T01:17:48.892Z,3.77
2023-05-08T01:20:03.350Z,3.78
2023-05-08T01:22:29.260Z,3.79
2023-05-08T01:25:16.528Z,3.76
2023-05-08T01:27:42.270Z,3.69
2023-05-08T01:30:21.996Z,3.67
2023-05-08T01:32:30.039Z,3.48
2023-05-08T01:34:33.244Z,3.40
2023-05-08T01:36:52.101Z,3.36
2023-05-08T01:39:10.541Z,3.37
2023-05-08T01:41:18.429Z,3.35
2023-05-08T01:43:30.186Z,3.31
2023-05-08T01:45:44.871Z,3.26
2023-05-08T01:47:51.783Z,3.14
2023-05-08T01:50:21.088Z,3.17
2023-05-08T01:52:34.443Z,3.21
2023-05-08T01:54:55.475Z,3.21
2023-05-08T01:56:59.516Z,3.22
2023-05-08T01:59:02.335Z,3.25
2023-05-08T02:01:04.850Z,3.23
2023-05-08T02:03:08.630Z,3.24
2023-05-08T02:05:10.960Z,3.27
2023-05-08T02:07:12.659Z,3.28
2023-05-08T02:09:15.309Z,3.20
2023-05-08T02:11:18.308Z,3.23
2023-05-08T02:13:21.857Z,3.21
2023-05-08T02:15:25.939Z,3.16
2023-05-08T02:17:28.900Z,3.11
2023-05-08T02:19:31.422Z,3.11
2023-05-08T02:21:33.984Z,3.11
2023-05-08T02:23:36.057Z,3.10
2023-05-08T02:25:38.963Z,3.11
2023-05-08T02:27:43.499Z,3.14
2023-05-08T02:29:45.044Z,3.17
2023-05-08T02:31:48.151Z,3.23
2023-05-08T02:33:51.828Z,3.21
2023-05-08T02:35:54.477Z,3.25
2023-05-08T02:37:57.116Z,3.26
2023-05-08T02:39:58.988Z,3.30
2023-05-08T02:42:00.626Z,3.32
2023-05-08T02:44:02.242Z,3.39
2023-05-08T02:46:21.041Z,3.42
2023-05-08T02:48:33.299Z,3.39
2023-05-08T02:50:48.536Z,3.38
2023-05-08T02:52:54.384Z,3.35
2023-05-08T02:55:08.688Z,3.34
2023-05-08T02:57:28.627Z,3.27
2023-05-08T02:59:42.364Z,3.22
2023-05-08T03:02:02.291Z,3.08
2023-05-08T03:04:07.620Z,3.22
2023-05-08T03:06:26.346Z,3.22
2023-05-08T03:08:30.959Z,3.23
2023-05-08T03:10:35.129Z,3.18
2023-05-08T03:12:42.789Z,3.12
2023-05-08T03:14:54.810Z,3.02
2023-05-08T03:16:59.067Z,2.93
2023-05-08T03:19:03.806Z,2.95
2023-05-08T03:21:07.255Z,2.98
2023-05-08T03:23:10.094Z,2.88
2023-05-08T03:25:14.139Z,2.68
2023-05-08T03:27:16.783Z,2.88
2023-05-08T03:29:19.752Z,2.93
2023-05-08T03:31:23.017Z,2.92
2023-05-08T03:33:25.519Z,2.99
2023-05-08T03:35:27.718Z,3.09
2023-05-08T03:37:29.645Z,3.17
2023-05-08T03:39:31.319Z,3.29
2023-05-08T03:41:32.922Z,3.30
2023-05-08T03:43:36.743Z,3.34
2023-05-08T03:45:40.555Z,3.43
2023-05-08T03:47:44.318Z,3.52
2023-05-08T03:49:47.578Z,3.69
2023-05-08T03:51:49.773Z,3.74
2023-05-08T03:53:51.184Z,3.79
2023-05-08T03:55:52.697Z,3.73
2023-05-08T03:58:04.516Z,4.00
2023-05-08T04:00:24.632Z,4.27
2023-05-08T04:02:50.557Z,4.47
2023-05-08T04:05:00.551Z,4.60
2023-05-08T04:07:34.778Z,4.67
2023-05-08T04:09:41.708Z,4.84
2023-05-08T04:11:52.294Z,5.00
2023-05-08T04:14:00.660Z,5.51
2023-05-08T04:16:15.836Z,5.89
2023-05-08T04:18:22.181Z,5.96
2023-05-08T04:20:27.154Z,6.06
2023-05-08T04:22:31.731Z,6.21
2023-05-08T04:24:37.119Z,6.51
2023-05-08T04:26:39.739Z,6.80
2023-05-08T04:28:41.544Z,7.17
2023-05-08T04:30:43.093Z,7.61
2023-05-08T04:32:46.631Z,7.72
2023-05-08T04:34:48.943Z,8.52
2023-05-08T04:36:50.488Z,8.96
2023-05-08T04:38:51.957Z,9.94
2023-05-08T04:40:53.526Z,10.77
2023-05-08T04:42:55.485Z,11.05
2023-05-08T04:44:56.888Z,10.92
2023-05-08T04:46:58.393Z,11.99
2023-05-08T04:48:59.901Z,12.98
2023-05-08T04:51:01.297Z,13.60
2023-05-08T04:53:02.974Z,13.74
2023-05-08T04:55:05.044Z,14.05
2023-05-08T04:57:06.455Z,13.84
2023-05-08T04:59:08.019Z,14.54
2023-05-08T05:01:09.714Z,15.01
2023-05-08T05:03:11.315Z,14.92
2023-05-08T05:05:13.195Z,15.43
2023-05-08T05:07:15.037Z,15.69
2023-05-08T05:09:16.465Z,15.12
2023-05-08T05:11:18.115Z,15.57
2023-05-08T05:13:19.706Z,16.20
2023-05-08T05:15:21.135Z,16.32
2023-05-08T05:17:23.221Z,15.88
2023-05-08T05:19:24.850Z,15.34
2023-05-08T05:21:26.307Z,15.57
2023-05-08T05:23:27.912Z,16.15
2023-05-08T05:25:29.410Z,16.10
2023-05-08T05:27:30.923Z,15.94
2023-05-08T05:29:32.456Z,15.23
2023-05-08T05:31:33.995Z,15.06
2023-05-08T05:33:35.552Z,15.14
2023-05-08T05:35:37.112Z,15.63
2023-05-08T05:37:38.771Z,15.93
2023-05-08T05:39:40.174Z,15.75
2023-05-08T05:41:41.674Z,16.35
2023-05-08T05:43:43.152Z,16.14
2023-05-08T05:45:44.580Z,16.31
2023-05-08T05:47:46.657Z,15.35
2023-05-08T05:49:48.356Z,15.54
2023-05-08T05:51:49.730Z,15.33
2023-05-08T05:53:51.161Z,15.33
2023-05-08T05:55:52.543Z,15.68
2023-05-08T05:57:53.954Z,15.57
2023-05-08T05:59:55.347Z,15.52
2023-05-08T06:01:57.005Z,16.11
2023-05-08T06:03:58.491Z,16.33
2023-05-08T06:06:00.035Z,15.89
2023-05-08T06:08:01.644Z,16.02
2023-05-08T06:10:03.111Z,15.96
2023-05-08T06:12:04.574Z,15.65
2023-05-08T06:14:06.169Z,16.21
2023-05-08T06:16:07.987Z,16.50
2023-05-08T06:18:09.672Z,16.48
2023-05-08T06:20:11.364Z,15.54
2023-05-08T06:22:12.844Z,15.95
2023-05-08T06:24:14.364Z,15.73
2023-05-08T06:26:15.792Z,16.05
2023-05-08T06:28:17.774Z,16.41
2023-05-08T06:30:19.460Z,16.66
2023-05-08T06:32:21.061Z,16.83
2023-05-08T06:34:22.726Z,17.05
2023-05-08T06:36:24.276Z,16.69
2023-05-08T06:38:25.671Z,16.66
2023-05-08T06:40:27.233Z,17.19
2023-05-08T06:42:28.947Z,17.51
2023-05-08T06:44:30.371Z,18.27
2023-05-08T06:46:32.103Z,18.08
2023-05-08T06:48:34.403Z,18.47
2023-05-08T06:50:39.599Z,18.96
2023-05-08T06:52:41.108Z,18.44
2023-05-08T06:54:42.683Z,18.40
2023-05-08T06:56:44.095Z,18.71
2023-05-08T06:58:56.554Z,18.71
2023-05-08T07:01:06.556Z,17.21
2023-05-08T07:03:08.074Z,17.77
2023-05-08T07:05:09.979Z,17.66
2023-05-08T07:07:11.690Z,18.17
2023-05-08T07:09:13.138Z,18.13
2023-05-08T07:11:14.795Z,18.47
2023-05-08T07:13:17.594Z,18.58
2023-05-08T07:15:25.959Z,18.78
2023-05-08T07:17:27.785Z,18.57
2023-05-08T07:19:29.228Z,17.93
2023-05-08T07:21:30.667Z,18.22
2023-05-08T07:23:32.413Z,18.61
2023-05-08T07:25:33.834Z,18.72
2023-05-08T07:27:35.268Z,19.06
2023-05-08T07:29:39.067Z,19.08
2023-05-08T07:31:40.712Z,18.56
2023-05-08T07:33:42.219Z,18.89
2023-05-08T07:35:43.719Z,18.88
2023-05-08T07:37:45.314Z,18.88
2023-05-08T07:39:46.710Z,19.12
2023-05-08T07:41:49.888Z,19.57
2023-05-08T07:43:51.805Z,19.68
2023-05-08T07:45:53.313Z,18.82
2023-05-08T07:47:57.147Z,18.94
2023-05-08T07:49:58.799Z,19.64
2023-05-08T07:52:00.249Z,19.26
2023-05-08T07:54:01.819Z,18.45
2023-05-08T07:56:03.340Z,18.08
2023-05-08T07:58:04.773Z,18.74
2023-05-08T08:00:09.982Z,18.13
2023-05-08T08:02:11.484Z,18.22
2023-05-08T08:04:15.323Z,18.91
2023-05-08T08:06:17.074Z,19.08
2023-05-08T08:08:18.682Z,18.79
2023-05-08T08:10:20.166Z,18.10
2023-05-08T08:12:21.900Z,17.88
2023-05-08T08:14:23.627Z,18.12
2023-05-08T08:16:25.943Z,17.75
2023-05-08T08:18:27.592Z,16.96
2023-05-08T08:20:29.244Z,17.08
2023-05-08T08:22:30.781Z,17.72
2023-05-08T08:24:32.257Z,17.59
2023-05-08T08:26:33.844Z,17.29
2023-05-08T08:28:35.268Z,17.24
2023-05-08T08:30:36.922Z,16.93
2023-05-08T08:32:38.447Z,17.15
2023-05-08T08:34:39.858Z,17.41
2023-05-08T08:36:41.507Z,17.17
2023-05-08T08:38:42.913Z,17.34
2023-05-08T08:40:44.346Z,17.37
2023-05-08T08:42:45.818Z,17.45
2023-05-08T08:44:47.515Z,17.36
2023-05-08T08:46:51.547Z,17.48
2023-05-08T08:48:57.450Z,17.27
2023-05-08T08:51:06.284Z,16.87
2023-05-08T08:53:19.182Z,16.44
2023-05-08T08:55:22.539Z,16.08
2023-05-08T08:57:27.327Z,16.31
2023-05-08T08:59:29.886Z,16.80
2023-05-08T09:01:34.528Z,16.97
2023-05-08T09:03:36.302Z,17.49
2023-05-08T09:05:38.638Z,17.64
2023-05-08T09:07:40.481Z,17.76
2023-05-08T09:09:43.336Z,17.26
2023-05-08T09:11:46.440Z,18.23
2023-05-08T09:13:48.068Z,17.78
2023-05-08T09:15:49.731Z,17.31
2023-05-08T09:17:51.158Z,17.84
2023-05-08T09:19:53.252Z,18.11
2023-05-08T09:21:55.098Z,18.16
2023-05-08T09:23:56.455Z,17.98
2023-05-08T09:25:58.187Z,17.50
2023-05-08T09:28:17.078Z,16.99
2023-05-08T09:30:18.465Z,16.99
2023-05-08T09:32:20.113Z,17.19
2023-05-08T09:34:29.979Z,17.06
2023-05-08T09:36:31.393Z,17.36
2023-05-08T09:38:37.944Z,16.72
2023-05-08T09:40:39.618Z,16.31
2023-05-08T09:42:41.174Z,15.60
2023-05-08T09:44:53.641Z,16.49
2023-05-08T09:47:16.385Z,16.47
2023-05-08T09:49:18.285Z,16.59
2023-05-08T09:51:20.592Z,16.73
2023-05-08T09:53:31.453Z,16.70
2023-05-08T09:55:46.911Z,16.32
2023-05-08T09:57:56.577Z,16.27
2023-05-08T10:00:05.807Z,15.73
2023-05-08T10:02:11.191Z,15.74
2023-05-08T10:04:13.000Z,16.52
2023-05-08T10:06:15.153Z,16.67
2023-05-08T10:08:21.796Z,16.00
2023-05-08T10:10:28.064Z,16.74
2023-05-08T10:12:30.159Z,17.28
2023-05-08T10:14:31.579Z,16.74
2023-05-08T10:16:44.322Z,17.17
2023-05-08T10:18:50.249Z,17.58
2023-05-08T10:20:55.180Z,17.98
2023-05-08T10:22:57.650Z,18.43
2023-05-08T10:25:02.341Z,18.14
2023-05-08T10:27:52.739Z,17.76
2023-05-08T10:29:56.188Z,17.22
2023-05-08T10:31:59.616Z,16.81
2023-05-08T10:34:02.561Z,17.01
2023-05-08T10:36:05.085Z,16.98
2023-05-08T10:38:08.743Z,16.75
2023-05-08T10:40:10.472Z,17.02
2023-05-08T10:42:15.093Z,17.17
2023-05-08T10:44:17.094Z,17.42
2023-05-08T10:46:29.069Z,17.42
2023-05-08T10:48:52.515Z,17.17
2023-05-08T10:51:06.392Z,17.47
2023-05-08T10:53:15.793Z,17.76
2023-05-08T10:55:29.869Z,17.49
2023-05-08T10:57:31.624Z,16.76
2023-05-08T10:59:36.129Z,16.40
2023-05-08T11:01:39.613Z,16.15
2023-05-08T11:03:46.522Z,16.30
2023-05-08T11:05:50.156Z,16.99
2023-05-08T11:07:59.337Z,17.06
2023-05-08T11:10:13.080Z,17.21
2023-05-08T11:12:22.828Z,16.56
2023-05-08T11:14:24.951Z,16.86
2023-05-08T11:16:54.504Z,16.98
2023-05-08T11:19:18.444Z,17.32
2023-05-08T11:21:21.189Z,17.50
2023-05-08T11:23:34.074Z,17.26
2023-05-08T11:25:42.588Z,17.24
2023-05-08T11:27:46.913Z,17.52
2023-05-08T11:30:25.065Z,17.10
2023-05-08T11:33:11.625Z,16.65
2023-05-08T11:35:13.795Z,16.52
2023-05-08T11:37:23.094Z,16.16
2023-05-08T11:39:24.795Z,15.88
2023-05-08T11:41:26.211Z,16.07
2023-05-08T11:43:33.602Z,16.10
2023-05-08T11:45:41.267Z,15.32
2023-05-08T11:47:44.551Z,15.46
2023-05-08T11:49:46.154Z,15.83
2023-05-08T11:51:53.071Z,16.05
2023-05-08T11:53:54.506Z,16.36
2023-05-08T11:55:56.343Z,16.50
2023-05-08T11:57:57.947Z,16.41
2023-05-08T12:00:12.427Z,16.26
2023-05-08T12:02:14.237Z,16.11
2023-05-08T12:04:15.898Z,16.36
2023-05-08T12:06:18.766Z,16.65
2023-05-08T12:08:20.363Z,17.10
2023-05-08T12:10:21.883Z,17.20
2023-05-08T12:12:23.303Z,16.71
2023-05-08T12:14:25.040Z,16.39
2023-05-08T12:16:26.765Z,16.17
2023-05-08T12:18:28.790Z,16.70
2023-05-08T12:20:32.033Z,17.01
2023-05-08T12:22:35.153Z,17.11
2023-05-08T12:24:36.621Z,17.03
2023-05-08T12:26:38.581Z,17.04
2023-05-08T12:28:40.168Z,17.23
2023-05-08T12:30:42.184Z,17.48
2023-05-08T12:32:44.600Z,17.37
2023-05-08T12:34:46.225Z,17.13
2023-05-08T12:36:47.665Z,16.93
2023-05-08T12:38:51.698Z,17.15
2023-05-08T12:40:53.747Z,17.01
2023-05-08T12:42:55.223Z,16.89
2023-05-08T12:44:57.659Z,16.58
2023-05-08T12:46:59.428Z,16.63
2023-05-08T12:49:02.052Z,16.95
2023-05-08T12:51:04.777Z,17.45
2023-05-08T12:53:08.559Z,17.62
2023-05-08T12:55:23.408Z,17.13
2023-05-08T12:57:24.946Z,17.14
2023-05-08T12:59:32.555Z,17.57
2023-05-08T13:01:33.969Z,17.73
2023-05-08T13:03:36.465Z,17.87
2023-05-08T13:05:42.251Z,17.31
2023-05-08T13:07:43.715Z,17.19
2023-05-08T13:10:01.924Z,17.29
2023-05-08T13:12:03.539Z,17.14
2023-05-08T13:14:04.948Z,16.98
2023-05-08T13:16:07.722Z,17.06
2023-05-08T13:18:09.500Z,17.27
2023-05-08T13:20:11.549Z,17.33
2023-05-08T13:22:13.359Z,17.54
2023-05-08T13:24:15.164Z,17.30
2023-05-08T13:26:16.626Z,17.34
2023-05-08T13:28:18.240Z,17.44
2023-05-08T13:30:19.772Z,17.77
2023-05-08T13:32:21.301Z,17.70
2023-05-08T13:34:22.962Z,17.06
2023-05-08T13:36:24.757Z,17.48
2023-05-08T13:38:26.204Z,17.30
2023-05-08T13:40:28.226Z,17.64
2023-05-08T13:42:29.830Z,17.61
2023-05-08T13:44:31.229Z,17.86
2023-05-08T13:46:32.788Z,17.67
2023-05-08T13:48:34.415Z,17.90
2023-05-08T13:50:35.901Z,17.71
2023-05-08T13:52:38.620Z,17.76
2023-05-08T13:54:40.110Z,17.50
2023-05-08T13:56:41.639Z,17.31
2023-05-08T13:58:43.227Z,17.15
2023-05-08T14:00:44.734Z,17.20
2023-05-08T14:02:46.612Z,17.30
2023-05-08T14:04:48.246Z,17.67
2023-05-08T14:06:50.000Z,17.36
2023-05-08T14:08:54.230Z,17.42
2023-05-08T14:10:56.884Z,17.38
2023-05-08T14:12:58.483Z,17.41
2023-05-08T14:14:59.904Z,17.29
2023-05-08T14:17:01.859Z,17.45
2023-05-08T14:19:03.477Z,17.39
2023-05-08T14:21:04.905Z,17.52
2023-05-08T14:23:06.397Z,17.76
2023-05-08T14:25:08.691Z,17.99
2023-05-08T14:27:10.432Z,18.15
2023-05-08T14:29:12.074Z,18.19
2023-05-08T14:31:13.708Z,18.14
2023-05-08T14:33:17.149Z,17.83
2023-05-08T14:35:20.089Z,18.10
2023-05-08T14:37:21.586Z,18.18
2023-05-08T14:39:23.055Z,18.15
2023-05-08T14:41:28.879Z,17.98
2023-05-08T14:43:30.560Z,17.75
2023-05-08T14:45:31.971Z,17.76
2023-05-08T14:47:33.498Z,17.87
2023-05-08T14:49:38.394Z,17.32
2023-05-08T14:51:40.305Z,17.59
2023-05-08T14:53:42.076Z,17.68
2023-05-08T14:57:49.200Z,17.15
2023-05-08T14:59:55.055Z,17.30
2023-05-08T15:01:56.987Z,17.13
2023-05-08T15:03:58.552Z,17.47
2023-05-08T15:06:00.137Z,17.45
2023-05-08T15:08:01.587Z,17.56
2023-05-08T15:10:03.622Z,17.83
2023-05-08T15:12:05.488Z,17.69
2023-05-08T15:14:06.957Z,17.71
2023-05-08T15:16:08.546Z,17.53
2023-05-08T15:18:10.167Z,17.33
2023-05-08T15:20:11.692Z,17.58
2023-05-08T15:22:13.462Z,17.77
2023-05-08T15:24:14.972Z,17.75
2023-05-08T15:26:16.447Z,17.59
2023-05-08T15:28:17.956Z,17.80
2023-05-08T15:30:20.503Z,17.79
2023-05-08T15:32:22.161Z,17.35
2023-05-08T15:34:26.371Z,17.44
2023-05-08T15:36:30.500Z,17.43
2023-05-08T15:38:32.029Z,17.46
2023-05-08T15:40:33.983Z,17.68
2023-05-08T15:42:35.589Z,17.82
2023-05-08T15:44:53.906Z,17.80
2023-05-08T15:46:56.402Z,17.77
2023-05-08T15:48:58.558Z,17.66
2023-05-08T15:51:01.327Z,17.77
2023-05-08T15:53:02.770Z,17.75
2023-05-08T15:55:05.357Z,17.04
2023-05-08T15:57:06.840Z,17.16
2023-05-08T15:59:08.292Z,17.14
2023-05-08T16:01:09.816Z,17.22
2023-05-08T16:03:11.562Z,16.99
2023-05-08T16:05:13.315Z,16.70
2023-05-08T16:07:15.100Z,16.96
2023-05-08T16:09:16.509Z,17.27
2023-05-08T16:11:17.910Z,17.35
2023-05-08T16:13:19.698Z,17.32
2023-05-08T16:15:21.321Z,17.45
2023-05-08T16:17:22.771Z,17.55
2023-05-08T16:19:24.521Z,17.72
2023-05-08T16:21:25.999Z,17.56
2023-05-08T16:23:27.419Z,17.69
2023-05-08T16:25:28.897Z,17.71
2023-05-08T16:27:30.447Z,17.62
2023-05-08T16:29:31.851Z,17.47
2023-05-08T16:31:33.606Z,17.47
2023-05-08T16:33:35.187Z,17.57
2023-05-08T16:35:36.621Z,17.33
2023-05-08T16:37:38.198Z,17.04
2023-05-08T16:39:39.832Z,16.86
2023-05-08T16:41:41.233Z,16.88
2023-05-08T16:43:42.749Z,16.89
2023-05-08T16:45:44.420Z,17.02
2023-05-08T16:47:46.072Z,16.83
2023-05-08T16:49:47.675Z,16.77
2023-05-08T16:51:49.346Z,16.95
2023-05-08T16:53:50.752Z,16.89
2023-05-08T16:55:52.185Z,16.87
2023-05-08T16:57:53.676Z,16.88
2023-05-08T16:59:55.087Z,16.92
2023-05-08T17:01:56.692Z,16.56
2023-05-08T17:03:58.300Z,16.56
2023-05-08T17:05:59.737Z,16.71
2023-05-08T17:08:01.351Z,16.61
2023-05-08T17:10:02.924Z,16.68
2023-05-08T17:12:04.710Z,16.60
2023-05-08T17:14:06.248Z,16.49
2023-05-08T17:16:07.777Z,16.35
2023-05-08T17:18:09.228Z,16.13
2023-05-08T17:20:11.818Z,16.28
2023-05-08T17:22:13.653Z,16.20
2023-05-08T17:24:15.037Z,16.19
2023-05-08T17:26:18.103Z,16.23
2023-05-08T17:28:19.532Z,16.23
2023-05-08T17:30:20.978Z,16.09
2023-05-08T17:32:22.565Z,15.97
2023-05-08T17:34:24.187Z,16.04
2023-05-08T17:36:25.637Z,15.98
2023-05-08T17:38:27.258Z,15.97
2023-05-08T17:40:28.879Z,15.88
2023-05-08T17:42:30.291Z,15.88
2023-05-08T17:44:31.950Z,15.91
2023-05-08T17:46:33.455Z,15.73
2023-05-08T17:48:35.248Z,15.79
2023-05-08T17:50:36.953Z,15.60
2023-05-08T17:52:38.570Z,15.60
2023-05-08T17:54:39.985Z,15.50
2023-05-08T17:56:41.508Z,15.43
2023-05-08T17:58:42.994Z,15.30
2023-05-08T18:00:44.428Z,15.17
2023-05-08T18:02:46.098Z,15.00
2023-05-08T18:04:47.791Z,14.91
2023-05-08T18:06:49.247Z,14.85
2023-05-08T18:08:50.839Z,14.72
2023-05-08T18:10:52.454Z,14.59
2023-05-08T18:12:53.938Z,14.45
2023-05-08T18:14:55.649Z,14.91
2023-05-08T18:16:57.394Z,15.14
2023-05-08T18:18:58.819Z,14.50
2023-05-08T18:21:00.441Z,14.00
2023-05-08T18:23:01.984Z,13.75
2023-05-08T18:25:03.596Z,13.57
2023-05-08T18:27:05.201Z,13.29
2023-05-08T18:29:07.424Z,13.25
2023-05-08T18:31:09.303Z,12.98
2023-05-08T18:33:10.875Z,12.96
2023-05-08T18:35:12.521Z,12.77
2023-05-08T18:37:13.946Z,12.57
2023-05-08T18:39:15.547Z,12.54
2023-05-08T18:41:17.032Z,12.38
2023-05-08T18:43:18.429Z,12.27
2023-05-08T18:45:19.979Z,12.06
2023-05-08T18:47:21.646Z,11.93
2023-05-08T18:49:23.040Z,11.80
2023-05-08T18:51:24.660Z,11.74
2023-05-08T18:53:26.360Z,11.72
2023-05-08T18:55:27.791Z,11.18
2023-05-08T18:57:29.270Z,11.13
2023-05-08T18:59:30.840Z,11.18
2023-05-08T19:01:32.268Z,11.18
2023-05-08T19:03:33.951Z,10.83
2023-05-08T19:05:35.375Z,10.97
2023-05-08T19:07:37.214Z,10.89
2023-05-08T19:09:38.750Z,10.75
2023-05-08T19:11:40.333Z,10.63
2023-05-08T19:13:41.748Z,10.71
2023-05-08T19:15:43.366Z,10.55
2023-05-08T19:17:45.508Z,10.65
2023-05-08T19:19:49.051Z,10.56
2023-05-08T19:21:50.599Z,10.36
2023-05-08T19:23:52.066Z,10.39
2023-05-08T19:25:53.559Z,10.20
2023-05-08T19:27:55.089Z,10.18
2023-05-08T19:29:56.506Z,10.10
2023-05-08T19:31:57.994Z,10.17
2023-05-08T19:34:00.392Z,9.94
2023-05-08T19:36:01.822Z,9.90
2023-05-08T19:38:03.203Z,9.70
2023-05-08T19:40:05.810Z,9.74
2023-05-08T19:42:07.208Z,9.68
2023-05-08T19:44:08.781Z,9.53
2023-05-08T19:46:10.387Z,9.52
2023-05-08T19:48:17.858Z,9.45
2023-05-08T19:50:19.914Z,9.23
2023-05-08T19:52:21.484Z,9.29
2023-05-08T19:54:22.862Z,9.31
2023-05-08T19:56:24.374Z,9.11
2023-05-08T19:58:25.952Z,9.22
2023-05-08T20:00:27.358Z,9.20
2023-05-08T20:02:28.995Z,9.15
2023-05-08T20:04:30.694Z,9.08
2023-05-08T20:06:32.792Z,9.04
2023-05-08T20:08:34.296Z,8.95
2023-05-08T20:10:35.828Z,8.93
2023-05-08T20:12:37.240Z,8.85
2023-05-08T20:14:38.734Z,8.66
2023-05-08T20:16:40.374Z,8.81
2023-05-08T20:18:41.924Z,8.84
2023-05-08T20:20:43.373Z,8.82
2023-05-08T20:22:44.926Z,8.81
2023-05-08T20:24:46.326Z,8.66
2023-05-08T20:26:47.761Z,8.47
2023-05-08T20:28:49.189Z,8.38
2023-05-08T20:30:50.635Z,8.38
2023-05-08T20:32:52.293Z,7.32
2023-05-08T20:34:53.739Z,8.29
2023-05-08T20:36:56.002Z,8.29
2023-05-08T20:38:57.527Z,8.19
2023-05-08T20:41:01.035Z,8.02
2023-05-08T20:43:02.838Z,8.06
2023-05-08T20:45:04.637Z,7.94
2023-05-08T20:47:06.310Z,7.79
2023-05-08T20:49:07.786Z,7.75
2023-05-08T20:51:09.285Z,7.79
2023-05-08T20:53:10.723Z,7.75
2023-05-08T20:55:12.313Z,7.74
2023-05-08T20:57:14.285Z,7.57
2023-05-08T20:59:15.686Z,7.63
2023-05-08T21:01:19.217Z,7.60
2023-05-08T21:03:22.260Z,7.58
2023-05-08T21:05:23.807Z,7.57
2023-05-08T21:07:28.099Z,7.57
2023-05-08T21:09:29.589Z,7.45
2023-05-08T21:11:31.134Z,7.54
2023-05-08T21:13:32.730Z,7.49
2023-05-08T21:15:34.211Z,7.32
2023-05-08T21:17:35.732Z,7.39
2023-05-08T21:19:37.214Z,7.30
2023-05-08T21:21:38.666Z,7.28
2023-05-08T21:23:40.399Z,7.29
2023-05-08T21:25:41.816Z,7.25
2023-05-08T21:27:43.772Z,7.16
2023-05-08T21:29:45.357Z,7.14
2023-05-08T21:31:46.870Z,7.12
2023-05-08T21:33:48.371Z,7.15
2023-05-08T21:35:49.997Z,7.07
2023-05-08T21:37:53.822Z,7.13
2023-05-08T21:39:56.073Z,7.10
2023-05-08T21:41:57.620Z,7.07
2023-05-08T21:43:59.057Z,7.06
2023-05-08T21:46:00.758Z,6.92
2023-05-08T21:48:02.673Z,7.00
2023-05-08T21:50:04.260Z,6.90
2023-05-08T21:52:05.742Z,6.83
2023-05-08T21:54:07.689Z,6.86
2023-05-08T21:56:09.145Z,6.78
2023-05-08T21:58:10.553Z,6.77
2023-05-08T22:00:12.770Z,6.68
2023-05-08T22:02:14.219Z,6.76
2023-05-08T22:04:15.612Z,6.67
2023-05-08T22:06:17.124Z,6.76
2023-05-08T22:08:18.515Z,6.72
2023-05-08T22:10:19.953Z,6.68
2023-05-08T22:12:21.465Z,6.55
2023-05-08T22:14:22.908Z,6.55
2023-05-08T22:16:24.400Z,6.46
2023-05-08T22:18:25.997Z,6.35
2023-05-08T22:20:27.470Z,6.25
2023-05-08T22:22:28.932Z,6.35
2023-05-08T22:24:30.487Z,6.32
2023-05-08T22:26:31.874Z,6.23
2023-05-08T22:28:33.365Z,6.15
2023-05-08T22:30:34.855Z,6.18
2023-05-08T22:32:36.382Z,6.24
2023-05-08T22:34:37.953Z,6.15
2023-05-08T22:36:39.535Z,6.18
2023-05-08T22:38:40.940Z,6.26
2023-05-08T22:40:42.523Z,6.22
2023-05-08T22:42:44.943Z,6.08
2023-05-08T22:44:46.447Z,6.12
2023-05-08T22:46:48.084Z,6.08
2023-05-08T22:48:50.912Z,6.02
2023-05-08T22:50:52.350Z,5.94
2023-05-08T22:52:53.892Z,5.86
2023-05-08T22:54:55.454Z,5.79
2023-05-08T22:56:56.859Z,5.81
2023-05-08T22:58:58.343Z,5.62
2023-05-08T23:01:00.008Z,5.71
2023-05-08T23:03:01.515Z,5.68
2023-05-08T23:05:03.204Z,5.62
2023-05-08T23:07:04.831Z,5.61
2023-05-08T23:09:06.241Z,5.48
2023-05-08T23:11:07.800Z,5.52
2023-05-08T23:13:09.641Z,5.36
2023-05-08T23:15:11.972Z,5.40
2023-05-08T23:17:13.877Z,5.35
2023-05-08T23:19:16.663Z,5.46
2023-05-08T23:21:18.075Z,5.47
2023-05-08T23:23:19.556Z,5.39
2023-05-08T23:25:21.382Z,5.51
2023-05-08T23:27:22.846Z,5.43
2023-05-08T23:29:24.427Z,5.41
2023-05-08T23:31:26.018Z,5.34
2023-05-08T23:33:28.344Z,5.39
2023-05-08T23:35:29.848Z,5.17
2023-05-08T23:37:31.473Z,5.27
2023-05-08T23:39:33.456Z,5.30
2023-05-08T23:41:35.208Z,5.32
2023-05-08T23:43:37.272Z,5.36
2023-05-08T23:45:38.699Z,5.31
2023-05-08T23:47:40.665Z,5.21
2023-05-08T23:49:42.082Z,5.21
2023-05-08T23:51:43.482Z,5.24
2023-05-08T23:53:45.090Z,5.15
2023-05-08T23:55:49.923Z,5.09
2023-05-08T23:57:51.468Z,5.13
2023-05-08T23:59:53.176Z,5.00
